Station: Edithburgh  

  Atmospheric Gas Attenuation - ITU Rec 676-11   ----------------- dB/100km -----------------
Date Time Temp RH % AH g/m3 Dew Point Wind Direction Speed kph Gust kph Barometer mB Rainfall Since 9am 24GHz 47GHz 76GHz 122GHz 134GHz 241GHz
04/05 23:40 14 83 10.01 11.1 11 15 1020.7 0 22.6 28.5 45.9 120.5 117.9 406.7
04/05 23:30 14.1 82 9.95 11.1 13 19 1020.8 0 22.5 28.3 45.5 119.7 116.9 403.3
04/05 23:20 14 81 9.77 10.9 15 19 1020.7 0 22.1 28.1 44.8 117.8 114.6 395.0
04/05 23:10 14.1 81 9.83 11 15 19 1020.6 0 22.2 28.1 45.0 118.3 115.2 397.4
04/05 23:00 14.2 83 10.14 11.4 13 22 1020.5 0 22.9 28.6 46.3 121.6 119.4 411.9
04/05 22:50 14.3 81 9.95 11.2 11 13 1020.5 0 22.4 28.3 45.4 119.3 116.6 402.1
04/05 22:40 14.2 81 9.89 11.1 15 17 1020.5 0 22.3 28.2 45.2 118.8 115.9 399.7
04/05 22:30 13.8 82 9.77 10.8 11 19 1020.4 0 22.1 28.1 44.9 118.1 114.8 396.0
04/05 22:20 13.4 81 9.42 10.2 9 11 1020.4 0 21.4 27.6 43.7 114.7 110.6 381.1
04/05 22:10 13.4 81 9.42 10.2 11 13 1020.3 0 21.4 27.6 43.7 114.7 110.6 381.0
04/05 22:00 13.2 81 9.3 10 11 15 1020.3 0 21.1 27.5 43.3 113.7 109.2 376.2
04/05 21:50 13.6 79 9.3 10 9 11 1020.2 0 21.1 27.4 43.1 113.1 108.7 374.3
04/05 21:40 13.6 79 9.3 10 9 13 1020.2 0 21.1 27.4 43.1 113.1 108.7 374.3
04/05 21:30 14.1 79 9.59 10.5 13 19 1020.2 0 21.7 27.7 44.0 115.6 111.9 385.7
04/05 21:20 13.9 78 9.35 10.1 13 15 1020.1 0 21.2 27.4 43.1 113.2 108.9 375.2
04/05 21:10 14.3 76 9.34 10.1 13 15 1019.9 0 21.1 27.2 42.8 112.5 108.2 372.8
04/05 21:00 14.1 76 9.22 9.9 13 20 1019.9 0 20.9 27.1 42.5 111.5 106.8 368.0
04/05 20:50 14.4 74 9.15 9.8 17 20 1019.7 0 20.7 26.9 42.0 110.3 105.5 363.3
04/05 20:40 14.3 74 9.09 9.7 17 19 1019.6 0 20.6 26.8 41.8 109.7 104.8 360.9
04/05 20:30 14.5 73 9.08 9.7 15 22 1019.5 0 20.6 26.7 41.7 109.3 104.4 359.5
04/05 20:20 14.4 74 9.15 9.8 13 17 1019.4 0 20.7 26.8 42.0 110.2 105.5 363.2
04/05 20:10 14 75 9.05 9.6 13 17 1019.2 0 20.5 26.8 41.8 109.7 104.6 360.3
04/05 20:00 14.5 74 9.2 9.9 13 19 1019.1 0 20.8 26.9 42.1 110.6 106.0 365.0
04/05 19:50 14.6 72 9.01 9.6 11 11 1019 0 20.4 26.5 41.3 108.4 103.3 355.6
04/05 19:40 14.8 71 8.99 9.6 13 15 1018.9 0 20.4 26.4 41.1 107.9 102.7 353.7
04/05 19:30 14.8 71 8.99 9.6 15 26 1018.8 0 20.4 26.4 41.1 107.9 102.7 353.7
04/05 19:20 14.9 71 9.05 9.7 19 20 1018.6 0 20.5 26.5 41.3 108.4 103.4 356.0
04/05 19:10 14.9 72 9.18 9.9 20 22 1018.4 0 20.8 26.7 41.8 109.7 105.1 362.0
04/05 19:00 14.8 72 9.12 9.8 19 28 1018.4 0 20.6 26.6 41.6 109.2 104.4 359.6
04/05 18:50 14.7 73 9.19 9.9 17 19 1018.2 0 20.8 26.8 41.9 110.1 105.5 363.3
04/05 18:40 14.9 73 9.3 10.1 19 24 1018 0 21.0 26.9 42.3 111.0 106.7 367.5
04/05 18:30 14.7 74 9.32 10.1 17 22 1017.8 0 21.1 27.0 42.5 111.5 107.2 369.3
04/05 18:20 14.8 74 9.37 10.2 19 20 1017.6 0 21.2 27.0 42.6 111.9 107.7 371.1
04/05 18:10 15 73 9.36 10.2 19 20 1017.4 0 21.1 26.9 42.4 111.4 107.3 369.6
04/05 18:00 15.1 73 9.42 10.3 19 28 1017.3 0 21.3 27.0 42.6 111.9 107.9 371.9
04/05 17:50 15.1 72 9.29 10.1 17 19 1017.2 0 21.0 26.8 42.1 110.5 106.2 365.8
04/05 17:40 15.2 70 9.09 9.9 19 24 1017.1 0 20.6 26.4 41.2 108.2 103.4 356.1
04/05 17:30 15.5 70 9.25 10.1 20 28 1017 0 20.9 26.6 41.7 109.5 105.1 362.1
04/05 17:20 15.8 69 9.29 10.1 19 22 1016.9 0 21.0 26.6 41.7 109.5 105.2 362.5
04/05 17:10 16.2 68 9.38 10.3 17 22 1016.8 0 21.1 26.6 41.9 109.9 105.8 364.8
04/05 17:00 16.4 69 9.63 10.7 19 26 1016.7 0 21.7 26.9 42.7 112.3 108.8 375.4
04/05 16:50 16.6 71 10.03 11.3 20 24 1016.6 0 22.5 27.5 44.3 116.3 113.9 393.0
04/05 16:40 16.6 70 9.89 11.1 17 19 1016.6 0 22.2 27.3 43.7 114.8 112.0 386.5
04/05 16:30 16.6 69 9.75 10.9 20 30 1016.5 0 21.9 27.0 43.1 113.3 110.1 379.9
04/05 16:20 16.6 67 9.46 10.6 26 32 1016.3 0 21.3 26.6 41.9 110.2 106.3 366.5
04/05 16:10 17.3 67 9.87 11.1 26 32 1016.2 0 22.1 27.0 43.2 113.5 110.7 382.0
04/05 16:00 17.8 65 9.86 11.1 28 41 1016.2 0 22.1 26.9 42.9 112.7 109.9 379.1
04/05 15:50 18 65 9.98 11.3 32 33 1016 0 22.3 27.0 43.2 113.7 111.1 383.6
04/05 15:40 18 63 9.68 10.8 24 32 1015.9 0 21.7 26.5 42.1 110.5 107.2 369.9
04/05 15:30 18.2 63 9.79 11 30 39 1015.7 0 21.9 26.6 42.4 111.3 108.3 373.8
04/05 15:20 18.2 62 9.64 10.8 32 35 1015.5 0 21.6 26.4 41.8 109.7 106.4 367.0
04/05 15:10 18.5 63 9.97 11.5 26 32 1015.5 0 22.3 26.8 42.9 112.8 110.2 380.5
04/05 15:00 18.4 62 9.75 11 32 44 1015.4 0 21.8 26.5 42.1 110.6 107.5 371.0
04/05 14:50 18.3 62 9.69 10.9 37 43 1015.2 0 21.7 26.4 41.9 110.1 106.9 368.7
04/05 14:40 18.7 59 9.45 10.7 33 37 1015.2 0 21.2 25.9 40.8 107.1 103.3 356.1
04/05 14:30 18.3 61 9.54 10.7 35 46 1015.1 0 21.4 26.2 41.3 108.5 104.9 361.9
04/05 14:20 18.8 61 9.82 11.1 30 37 1015 0 21.9 26.4 42.1 110.7 107.8 372.2
04/05 14:10 18.1 66 10.2 11.8 32 41 1014.9 0 22.8 27.3 44.0 115.8 113.8 392.9
04/05 14:00 18.4 63 9.91 11.2 32 43 1014.9 0 22.1 26.7 42.7 112.2 109.6 378.1
04/05 13:50 18.8 61 9.82 11.1 28 39 1014.8 0 21.9 26.4 42.1 110.7 107.8 372.1
04/05 13:40 19 59 9.61 11 32 35 1014.7 0 21.5 26.0 41.2 108.3 104.9 361.7
04/05 13:30 18.7 60 9.61 10.8 32 46 1014.6 0 21.5 26.1 41.4 108.7 105.2 363.1
04/05 13:20 18.9 64 10.37 12.1 32 37 1014.7 0 23.1 27.3 44.2 116.4 114.8 396.6
04/05 13:10 19.1 63 10.33 11.9 32 39 1014.7 0 23.0 27.2 44.0 115.7 114.0 393.8
04/05 13:00 19 64 10.43 12 32 43 1014.8 0 23.2 27.4 44.4 116.9 115.5 398.9
04/05 12:50 18.5 61 9.65 10.8 39 44 1014.7 0 21.6 26.3 41.6 109.4 106.0 365.8
04/05 12:40 18.7 59 9.45 10.7 28 37 1014.9 0 21.2 25.9 40.7 107.0 103.2 356.0
04/05 12:30 19 60 9.78 11.1 33 44 1015 0 21.8 26.3 41.9 110.0 107.1 369.4
04/05 12:20 18.5 59 9.33 10.3 35 41 1015 0 20.9 25.8 40.4 106.1 102.0 351.6
04/05 12:10 18.6 63 10.03 11.6 32 39 1015.1 0 22.4 26.8 43.1 113.2 110.9 382.7
04/05 12:00 18 64 9.83 11.1 35 48 1015 0 22.0 26.7 42.6 112.0 109.1 376.4
04/05 11:50 18.2 66 10.26 11.9 37 44 1015.2 0 22.9 27.3 44.2 116.3 114.5 395.2
04/05 11:40 18.9 66 10.69 12.4 26 30 1015.4 0 23.8 27.8 45.6 119.9 119.1 411.6
04/05 11:30 18.7 66 10.57 12.2 28 41 1015.2 0 23.5 27.7 45.2 118.9 117.8 407.0
04/05 11:20 18.5 67 10.6 12.4 26 33 1015.3 0 23.6 27.8 45.4 119.5 118.5 409.5
04/05 11:10 17.6 69 10.35 11.8 30 33 1015.2 0 23.1 27.7 44.9 118.2 116.5 402.4
04/05 11:00 18.1 69 10.66 12.3 30 39 1015.1 0 23.8 28.0 45.9 120.7 119.9 414.3
04/05 10:50 17.7 68 10.26 11.7 37 41 1015 0 22.9 27.5 44.5 117.0 115.2 397.7
04/05 10:40 18 66 10.14 11.7 30 33 1014.9 0 22.7 27.2 43.8 115.3 113.1 390.6
04/05 10:30 17.7 68 10.26 11.7 33 43 1014.8 0 22.9 27.5 44.5 117.0 115.2 397.6
04/05 10:20 17.8 70 10.62 12.4 26 30 1014.7 0 23.7 28.0 45.9 120.7 119.8 413.9
04/05 10:10 17.3 69 10.16 11.7 26 28 1014.5 0 22.7 27.4 44.3 116.5 114.4 394.9
04/05 10:00 17.3 71 10.46 12 30 43 1014.5 0 23.4 27.9 45.5 119.7 118.4 408.9
04/05 09:50 17.3 73 10.75 12.4 32 37 1014.5 0 24.0 28.4 46.7 122.9 122.3 422.6
04/05 09:40 17.5 73 10.88 12.6 32 39 1014.4 0 24.3 28.5 47.1 124.0 123.8 427.7
04/05 09:30 17.1 75 10.92 12.6 28 41 1014.3 0 24.4 28.7 47.5 125.1 124.9 431.7
04/05 09:20 17.1 73 10.63 12.2 35 39 1014.1 0 23.7 28.2 46.3 121.8 121.0 417.9
04/05 09:10 16.8 76 10.87 12.5 32 39 1014.1 0 24.3 28.7 47.5 125.0 124.7 430.9
04/05 09:00 16.6 75 10.59 12.2 28 37 1014 0 23.7 28.3 46.4 122.2 121.2 418.6
04/05 08:50 16.5 78 10.95 12.6 22 30 1013.8 3.4 24.5 29.0 48.0 126.3 126.3 436.4
04/05 08:40 16 76 10.35 11.9 22 26 1013.7 3.4 23.2 28.1 45.8 120.4 118.8 410.3
04/05 08:30 15.8 77 10.36 11.8 26 33 1013.5 3.4 23.2 28.2 45.9 120.8 119.3 411.8
04/05 08:20 15.8 83 11.17 12.9 17 22 1013.3 3.4 25.0 29.6 49.3 129.9 130.5 450.9
04/05 08:10 15.1 83 10.71 12.2 15 17 1013 3.4 24.0 29.0 47.8 125.8 125.2 432.3
04/05 08:00 14.9 85 10.83 12.4 19 28 1013 3.4 24.3 29.3 48.4 127.5 127.2 439.3
04/05 07:50 14.2 89 10.87 12.5 20 24 1012.8 3.4 24.4 29.6 49.0 129.1 128.9 445.2
04/05 07:40 13.3 93 10.75 12.2 13 15 1012.7 3.4 24.2 29.7 49.1 129.2 128.7 444.4
04/05 07:30 13.1 93 10.61 12 17 24 1012.5 3.4 23.9 29.5 48.6 127.9 127.0 438.5
04/05 07:20 12.9 93 10.48 11.8 20 24 1012.3 3.4 23.7 29.3 48.1 126.7 125.5 433.0
04/05 07:10 13 93 10.55 11.9 17 19 1012.1 3.4 23.8 29.4 48.4 127.3 126.3 435.9

Last Refresh: 04-May-2026 23:47:43

Bureau of Meteorology